sensor_id;sensor_type;location;lat;lon;timestamp;P1;durP1;ratioP1;P2;durP2;ratioP2
67751;SDS011;54551;51.068;5.826;2022-12-20T00:01:29;2.70;;;1.80;;
67751;SDS011;54551;51.068;5.826;2022-12-20T00:03:58;2.70;;;2.13;;
67751;SDS011;54551;51.068;5.826;2022-12-20T00:06:26;3.00;;;1.80;;
67751;SDS011;54551;51.068;5.826;2022-12-20T00:08:54;6.23;;;1.83;;
67751;SDS011;54551;51.068;5.826;2022-12-20T00:11:24;3.30;;;2.00;;
67751;SDS011;54551;51.068;5.826;2022-12-20T00:13:51;3.33;;;1.70;;
67751;SDS011;54551;51.068;5.826;2022-12-20T00:16:21;2.37;;;2.00;;
67751;SDS011;54551;51.068;5.826;2022-12-20T00:18:52;2.27;;;1.97;;
67751;SDS011;54551;51.068;5.826;2022-12-20T00:21:19;3.13;;;1.77;;
67751;SDS011;54551;51.068;5.826;2022-12-20T00:23:46;2.97;;;1.63;;
67751;SDS011;54551;51.068;5.826;2022-12-20T00:26:12;3.77;;;2.17;;
67751;SDS011;54551;51.068;5.826;2022-12-20T00:28:44;3.57;;;2.17;;
67751;SDS011;54551;51.068;5.826;2022-12-20T00:31:11;2.83;;;1.90;;
67751;SDS011;54551;51.068;5.826;2022-12-20T00:33:38;2.53;;;1.90;;
67751;SDS011;54551;51.068;5.826;2022-12-20T00:36:07;3.20;;;1.93;;
67751;SDS011;54551;51.068;5.826;2022-12-20T00:38:33;3.03;;;1.77;;
67751;SDS011;54551;51.068;5.826;2022-12-20T00:43:26;2.97;;;1.80;;
67751;SDS011;54551;51.068;5.826;2022-12-20T00:45:52;2.00;;;1.80;;
67751;SDS011;54551;51.068;5.826;2022-12-20T00:48:18;3.63;;;2.23;;
67751;SDS011;54551;51.068;5.826;2022-12-20T00:50:44;2.20;;;1.80;;
67751;SDS011;54551;51.068;5.826;2022-12-20T00:53:10;2.53;;;1.70;;
67751;SDS011;54551;51.068;5.826;2022-12-20T00:55:40;2.40;;;1.90;;
67751;SDS011;54551;51.068;5.826;2022-12-20T00:58:07;1.93;;;1.53;;
67751;SDS011;54551;51.068;5.826;2022-12-20T01:00:35;2.13;;;1.60;;
67751;SDS011;54551;51.068;5.826;2022-12-20T01:03:01;2.23;;;1.80;;
67751;SDS011;54551;51.068;5.826;2022-12-20T01:05:27;1.67;;;1.50;;
67751;SDS011;54551;51.068;5.826;2022-12-20T01:07:53;3.30;;;1.80;;
67751;SDS011;54551;51.068;5.826;2022-12-20T01:10:19;2.20;;;1.67;;
67751;SDS011;54551;51.068;5.826;2022-12-20T01:12:45;3.03;;;1.70;;
67751;SDS011;54551;51.068;5.826;2022-12-20T01:15:11;3.97;;;1.47;;
67751;SDS011;54551;51.068;5.826;2022-12-20T01:17:37;2.63;;;1.60;;
67751;SDS011;54551;51.068;5.826;2022-12-20T01:20:03;2.47;;;2.10;;
67751;SDS011;54551;51.068;5.826;2022-12-20T01:22:30;2.67;;;2.07;;
67751;SDS011;54551;51.068;5.826;2022-12-20T01:24:56;2.23;;;1.73;;
67751;SDS011;54551;51.068;5.826;2022-12-20T01:27:22;2.83;;;1.70;;
67751;SDS011;54551;51.068;5.826;2022-12-20T01:29:48;2.60;;;1.63;;
67751;SDS011;54551;51.068;5.826;2022-12-20T01:32:13;2.37;;;1.80;;
67751;SDS011;54551;51.068;5.826;2022-12-20T01:34:39;3.03;;;1.47;;
67751;SDS011;54551;51.068;5.826;2022-12-20T01:37:05;3.43;;;1.90;;
67751;SDS011;54551;51.068;5.826;2022-12-20T01:39:31;1.87;;;1.50;;
67751;SDS011;54551;51.068;5.826;2022-12-20T01:41:57;3.10;;;1.90;;
67751;SDS011;54551;51.068;5.826;2022-12-20T01:46:50;3.10;;;2.00;;
67751;SDS011;54551;51.068;5.826;2022-12-20T01:49:23;2.90;;;1.77;;
67751;SDS011;54551;51.068;5.826;2022-12-20T01:52:06;3.23;;;1.80;;
67751;SDS011;54551;51.068;5.826;2022-12-20T01:54:44;2.10;;;1.90;;
67751;SDS011;54551;51.068;5.826;2022-12-20T01:57:13;4.97;;;2.00;;
67751;SDS011;54551;51.068;5.826;2022-12-20T01:59:44;2.97;;;1.87;;
67751;SDS011;54551;51.068;5.826;2022-12-20T02:02:12;2.80;;;1.90;;
67751;SDS011;54551;51.068;5.826;2022-12-20T02:04:38;2.63;;;2.03;;
67751;SDS011;54551;51.068;5.826;2022-12-20T02:07:04;6.33;;;2.10;;
67751;SDS011;54551;51.068;5.826;2022-12-20T02:09:32;2.67;;;1.93;;
67751;SDS011;54551;51.068;5.826;2022-12-20T02:12:19;6.20;;;2.40;;
67751;SDS011;54551;51.068;5.826;2022-12-20T02:15:10;2.90;;;1.90;;
67751;SDS011;54551;51.068;5.826;2022-12-20T02:26:31;3.87;;;1.80;;
67751;SDS011;54551;51.068;5.826;2022-12-20T02:34:34;4.07;;;2.10;;
67751;SDS011;54551;51.068;5.826;2022-12-20T02:37:01;6.97;;;1.97;;
67751;SDS011;54551;51.068;5.826;2022-12-20T02:39:28;3.67;;;2.60;;
67751;SDS011;54551;51.068;5.826;2022-12-20T02:41:59;4.20;;;2.30;;
67751;SDS011;54551;51.068;5.826;2022-12-20T02:44:29;2.73;;;2.10;;
67751;SDS011;54551;51.068;5.826;2022-12-20T02:47:21;6.33;;;2.40;;
67751;SDS011;54551;51.068;5.826;2022-12-20T02:49:51;5.97;;;2.53;;
67751;SDS011;54551;51.068;5.826;2022-12-20T02:52:19;4.00;;;2.40;;
67751;SDS011;54551;51.068;5.826;2022-12-20T02:54:51;3.10;;;2.00;;
67751;SDS011;54551;51.068;5.826;2022-12-20T03:00:07;4.90;;;2.40;;
67751;SDS011;54551;51.068;5.826;2022-12-20T03:02:38;4.07;;;2.60;;
67751;SDS011;54551;51.068;5.826;2022-12-20T03:05:24;2.80;;;2.53;;
67751;SDS011;54551;51.068;5.826;2022-12-20T03:07:51;2.27;;;2.07;;
67751;SDS011;54551;51.068;5.826;2022-12-20T03:10:20;3.03;;;2.30;;
67751;SDS011;54551;51.068;5.826;2022-12-20T03:12:46;3.13;;;2.40;;
67751;SDS011;54551;51.068;5.826;2022-12-20T03:15:12;3.70;;;2.23;;
67751;SDS011;54551;51.068;5.826;2022-12-20T03:17:39;4.13;;;2.30;;
67751;SDS011;54551;51.068;5.826;2022-12-20T03:20:05;3.57;;;2.00;;
67751;SDS011;54551;51.068;5.826;2022-12-20T03:22:32;2.57;;;2.30;;
67751;SDS011;54551;51.068;5.826;2022-12-20T03:24:59;3.73;;;2.37;;
67751;SDS011;54551;51.068;5.826;2022-12-20T03:27:27;3.67;;;2.60;;
67751;SDS011;54551;51.068;5.826;2022-12-20T03:29:54;2.87;;;2.50;;
67751;SDS011;54551;51.068;5.826;2022-12-20T03:32:20;5.80;;;2.53;;
67751;SDS011;54551;51.068;5.826;2022-12-20T03:34:47;4.37;;;2.73;;
67751;SDS011;54551;51.068;5.826;2022-12-20T03:37:16;6.17;;;2.97;;
67751;SDS011;54551;51.068;5.826;2022-12-20T03:39:42;5.93;;;2.63;;
67751;SDS011;54551;51.068;5.826;2022-12-20T03:42:08;4.43;;;2.97;;
67751;SDS011;54551;51.068;5.826;2022-12-20T03:44:34;6.63;;;3.27;;
67751;SDS011;54551;51.068;5.826;2022-12-20T03:47:00;6.03;;;2.90;;
67751;SDS011;54551;51.068;5.826;2022-12-20T03:49:26;5.83;;;2.80;;
67751;SDS011;54551;51.068;5.826;2022-12-20T03:51:52;4.63;;;2.50;;
67751;SDS011;54551;51.068;5.826;2022-12-20T03:54:18;5.10;;;2.60;;
67751;SDS011;54551;51.068;5.826;2022-12-20T03:57:16;5.00;;;2.23;;
67751;SDS011;54551;51.068;5.826;2022-12-20T03:59:44;3.90;;;2.50;;
67751;SDS011;54551;51.068;5.826;2022-12-20T04:02:13;4.93;;;2.50;;
67751;SDS011;54551;51.068;5.826;2022-12-20T04:04:39;2.90;;;2.57;;
67751;SDS011;54551;51.068;5.826;2022-12-20T04:07:05;3.43;;;2.63;;
67751;SDS011;54551;51.068;5.826;2022-12-20T04:09:33;3.40;;;2.20;;
67751;SDS011;54551;51.068;5.826;2022-12-20T04:12:05;3.57;;;2.40;;
67751;SDS011;54551;51.068;5.826;2022-12-20T04:14:33;5.13;;;2.97;;
67751;SDS011;54551;51.068;5.826;2022-12-20T04:17:00;4.10;;;2.60;;
67751;SDS011;54551;51.068;5.826;2022-12-20T04:19:27;3.70;;;2.33;;
67751;SDS011;54551;51.068;5.826;2022-12-20T04:21:52;4.03;;;2.50;;
67751;SDS011;54551;51.068;5.826;2022-12-20T04:24:20;4.23;;;2.40;;
67751;SDS011;54551;51.068;5.826;2022-12-20T04:26:56;4.10;;;2.43;;
67751;SDS011;54551;51.068;5.826;2022-12-20T04:29:22;5.33;;;2.70;;
67751;SDS011;54551;51.068;5.826;2022-12-20T04:31:49;3.93;;;2.50;;
67751;SDS011;54551;51.068;5.826;2022-12-20T04:34:14;5.13;;;2.40;;
67751;SDS011;54551;51.068;5.826;2022-12-20T04:36:40;4.43;;;2.40;;
67751;SDS011;54551;51.068;5.826;2022-12-20T04:39:13;3.73;;;2.60;;
67751;SDS011;54551;51.068;5.826;2022-12-20T04:41:57;2.80;;;2.10;;
67751;SDS011;54551;51.068;5.826;2022-12-20T04:44:23;3.47;;;2.40;;
67751;SDS011;54551;51.068;5.826;2022-12-20T04:46:49;3.27;;;2.27;;
67751;SDS011;54551;51.068;5.826;2022-12-20T04:49:15;2.17;;;1.97;;
67751;SDS011;54551;51.068;5.826;2022-12-20T04:51:42;2.87;;;1.90;;
67751;SDS011;54551;51.068;5.826;2022-12-20T04:54:10;2.40;;;2.20;;
67751;SDS011;54551;51.068;5.826;2022-12-20T04:56:54;4.23;;;2.23;;
67751;SDS011;54551;51.068;5.826;2022-12-20T04:59:22;3.37;;;2.37;;
67751;SDS011;54551;51.068;5.826;2022-12-20T05:01:50;4.00;;;2.50;;
67751;SDS011;54551;51.068;5.826;2022-12-20T05:04:32;5.40;;;2.80;;
67751;SDS011;54551;51.068;5.826;2022-12-20T05:06:58;7.00;;;3.07;;
67751;SDS011;54551;51.068;5.826;2022-12-20T05:09:24;4.27;;;2.80;;
67751;SDS011;54551;51.068;5.826;2022-12-20T05:11:51;5.37;;;3.10;;
67751;SDS011;54551;51.068;5.826;2022-12-20T05:14:17;6.03;;;3.30;;
67751;SDS011;54551;51.068;5.826;2022-12-20T05:16:43;5.03;;;3.00;;
67751;SDS011;54551;51.068;5.826;2022-12-20T05:19:09;3.67;;;2.77;;
67751;SDS011;54551;51.068;5.826;2022-12-20T05:21:38;3.77;;;2.97;;
67751;SDS011;54551;51.068;5.826;2022-12-20T05:24:22;2.47;;;2.20;;
67751;SDS011;54551;51.068;5.826;2022-12-20T05:27:15;4.00;;;2.63;;
67751;SDS011;54551;51.068;5.826;2022-12-20T05:29:42;3.50;;;2.70;;
67751;SDS011;54551;51.068;5.826;2022-12-20T05:32:08;4.27;;;2.83;;
67751;SDS011;54551;51.068;5.826;2022-12-20T05:34:38;3.77;;;2.40;;
67751;SDS011;54551;51.068;5.826;2022-12-20T05:37:04;3.37;;;2.00;;
67751;SDS011;54551;51.068;5.826;2022-12-20T05:39:34;2.67;;;1.97;;
67751;SDS011;54551;51.068;5.826;2022-12-20T05:42:05;2.37;;;2.00;;
67751;SDS011;54551;51.068;5.826;2022-12-20T05:44:31;2.60;;;1.97;;
67751;SDS011;54551;51.068;5.826;2022-12-20T05:46:57;3.43;;;2.00;;
67751;SDS011;54551;51.068;5.826;2022-12-20T05:49:27;5.03;;;1.80;;
67751;SDS011;54551;51.068;5.826;2022-12-20T05:51:55;2.53;;;1.80;;
67751;SDS011;54551;51.068;5.826;2022-12-20T05:54:23;2.97;;;1.90;;
67751;SDS011;54551;51.068;5.826;2022-12-20T05:57:01;3.00;;;2.10;;
67751;SDS011;54551;51.068;5.826;2022-12-20T05:59:36;3.33;;;2.20;;
67751;SDS011;54551;51.068;5.826;2022-12-20T06:02:04;4.43;;;2.03;;
67751;SDS011;54551;51.068;5.826;2022-12-20T06:04:31;2.70;;;1.83;;
67751;SDS011;54551;51.068;5.826;2022-12-20T06:07:01;3.27;;;2.00;;
67751;SDS011;54551;51.068;5.826;2022-12-20T06:09:27;3.17;;;2.10;;
67751;SDS011;54551;51.068;5.826;2022-12-20T06:12:05;3.43;;;1.97;;
67751;SDS011;54551;51.068;5.826;2022-12-20T06:14:32;2.87;;;1.93;;
67751;SDS011;54551;51.068;5.826;2022-12-20T06:16:59;3.67;;;1.90;;
67751;SDS011;54551;51.068;5.826;2022-12-20T06:19:25;3.43;;;2.20;;
67751;SDS011;54551;51.068;5.826;2022-12-20T06:21:53;3.87;;;2.20;;
67751;SDS011;54551;51.068;5.826;2022-12-20T06:24:26;2.47;;;1.73;;
67751;SDS011;54551;51.068;5.826;2022-12-20T06:26:52;2.67;;;1.97;;
67751;SDS011;54551;51.068;5.826;2022-12-20T06:29:19;3.77;;;1.70;;
67751;SDS011;54551;51.068;5.826;2022-12-20T06:31:52;2.40;;;1.87;;
67751;SDS011;54551;51.068;5.826;2022-12-20T06:34:18;1.97;;;1.60;;
67751;SDS011;54551;51.068;5.826;2022-12-20T06:36:45;3.07;;;2.03;;
67751;SDS011;54551;51.068;5.826;2022-12-20T06:39:20;3.93;;;1.90;;
67751;SDS011;54551;51.068;5.826;2022-12-20T06:41:56;3.50;;;1.80;;
67751;SDS011;54551;51.068;5.826;2022-12-20T06:44:23;2.40;;;1.83;;
67751;SDS011;54551;51.068;5.826;2022-12-20T06:46:49;4.90;;;2.37;;
67751;SDS011;54551;51.068;5.826;2022-12-20T06:49:15;3.93;;;1.93;;
67751;SDS011;54551;51.068;5.826;2022-12-20T06:51:41;5.87;;;2.07;;
67751;SDS011;54551;51.068;5.826;2022-12-20T06:54:08;2.87;;;1.97;;
67751;SDS011;54551;51.068;5.826;2022-12-20T06:56:34;4.07;;;2.23;;
67751;SDS011;54551;51.068;5.826;2022-12-20T06:59:00;3.03;;;2.17;;
67751;SDS011;54551;51.068;5.826;2022-12-20T07:01:26;4.13;;;2.20;;
67751;SDS011;54551;51.068;5.826;2022-12-20T07:03:52;2.63;;;1.77;;
67751;SDS011;54551;51.068;5.826;2022-12-20T07:06:18;4.30;;;2.10;;
67751;SDS011;54551;51.068;5.826;2022-12-20T07:08:43;3.67;;;1.80;;
67751;SDS011;54551;51.068;5.826;2022-12-20T07:11:09;3.40;;;1.77;;
67751;SDS011;54551;51.068;5.826;2022-12-20T07:13:36;3.07;;;1.93;;
67751;SDS011;54551;51.068;5.826;2022-12-20T07:16:02;3.93;;;1.77;;
67751;SDS011;54551;51.068;5.826;2022-12-20T07:18:28;3.90;;;1.87;;
67751;SDS011;54551;51.068;5.826;2022-12-20T07:20:58;2.27;;;1.77;;
67751;SDS011;54551;51.068;5.826;2022-12-20T07:23:28;3.33;;;2.00;;
67751;SDS011;54551;51.068;5.826;2022-12-20T07:25:55;3.93;;;1.87;;
67751;SDS011;54551;51.068;5.826;2022-12-20T07:28:22;3.23;;;2.00;;
67751;SDS011;54551;51.068;5.826;2022-12-20T07:30:49;3.27;;;2.07;;
67751;SDS011;54551;51.068;5.826;2022-12-20T07:33:15;4.13;;;1.70;;
67751;SDS011;54551;51.068;5.826;2022-12-20T07:35:41;2.40;;;1.67;;
67751;SDS011;54551;51.068;5.826;2022-12-20T07:38:10;3.07;;;1.80;;
67751;SDS011;54551;51.068;5.826;2022-12-20T07:40:38;1.80;;;1.50;;
67751;SDS011;54551;51.068;5.826;2022-12-20T07:43:06;2.73;;;1.33;;
67751;SDS011;54551;51.068;5.826;2022-12-20T07:45:34;3.03;;;1.50;;
67751;SDS011;54551;51.068;5.826;2022-12-20T07:48:00;2.90;;;1.70;;
67751;SDS011;54551;51.068;5.826;2022-12-20T07:50:26;3.50;;;2.00;;
67751;SDS011;54551;51.068;5.826;2022-12-20T07:52:53;3.30;;;1.60;;
67751;SDS011;54551;51.068;5.826;2022-12-20T07:55:20;2.93;;;1.73;;
67751;SDS011;54551;51.068;5.826;2022-12-20T07:57:50;3.17;;;1.47;;
67751;SDS011;54551;51.068;5.826;2022-12-20T08:00:21;2.43;;;1.67;;
67751;SDS011;54551;51.068;5.826;2022-12-20T08:05:15;4.43;;;1.80;;
67751;SDS011;54551;51.068;5.826;2022-12-20T08:07:42;3.70;;;2.00;;
67751;SDS011;54551;51.068;5.826;2022-12-20T08:10:11;5.33;;;1.93;;
67751;SDS011;54551;51.068;5.826;2022-12-20T08:12:39;3.73;;;1.70;;
67751;SDS011;54551;51.068;5.826;2022-12-20T08:15:06;2.10;;;1.60;;
67751;SDS011;54551;51.068;5.826;2022-12-20T08:17:32;2.73;;;1.60;;
67751;SDS011;54551;51.068;5.826;2022-12-20T08:19:59;2.63;;;1.60;;
67751;SDS011;54551;51.068;5.826;2022-12-20T08:22:25;2.53;;;1.80;;
67751;SDS011;54551;51.068;5.826;2022-12-20T08:24:50;2.33;;;1.47;;
67751;SDS011;54551;51.068;5.826;2022-12-20T08:27:16;3.87;;;1.63;;
67751;SDS011;54551;51.068;5.826;2022-12-20T08:29:42;2.73;;;1.80;;
67751;SDS011;54551;51.068;5.826;2022-12-20T08:32:08;3.77;;;1.87;;
67751;SDS011;54551;51.068;5.826;2022-12-20T08:34:35;3.37;;;1.57;;
67751;SDS011;54551;51.068;5.826;2022-12-20T08:37:01;4.33;;;1.67;;
67751;SDS011;54551;51.068;5.826;2022-12-20T08:39:27;3.63;;;1.50;;
67751;SDS011;54551;51.068;5.826;2022-12-20T08:41:53;1.87;;;1.67;;
67751;SDS011;54551;51.068;5.826;2022-12-20T08:44:19;2.83;;;1.63;;
67751;SDS011;54551;51.068;5.826;2022-12-20T08:46:44;4.23;;;1.77;;
67751;SDS011;54551;51.068;5.826;2022-12-20T08:49:10;2.87;;;1.83;;
67751;SDS011;54551;51.068;5.826;2022-12-20T08:51:36;3.60;;;1.60;;
67751;SDS011;54551;51.068;5.826;2022-12-20T08:54:02;3.23;;;1.67;;
67751;SDS011;54551;51.068;5.826;2022-12-20T08:56:28;2.87;;;1.70;;
67751;SDS011;54551;51.068;5.826;2022-12-20T08:58:54;2.43;;;1.53;;
67751;SDS011;54551;51.068;5.826;2022-12-20T09:01:20;2.20;;;1.30;;
67751;SDS011;54551;51.068;5.826;2022-12-20T09:03:47;3.03;;;1.27;;
67751;SDS011;54551;51.068;5.826;2022-12-20T09:06:14;2.27;;;1.60;;
67751;SDS011;54551;51.068;5.826;2022-12-20T09:08:41;3.17;;;1.67;;
67751;SDS011;54551;51.068;5.826;2022-12-20T09:13:38;1.83;;;1.37;;
67751;SDS011;54551;51.068;5.826;2022-12-20T09:16:05;2.73;;;1.50;;
67751;SDS011;54551;51.068;5.826;2022-12-20T09:18:32;4.70;;;1.50;;
67751;SDS011;54551;51.068;5.826;2022-12-20T09:20:59;4.03;;;1.80;;
67751;SDS011;54551;51.068;5.826;2022-12-20T09:23:29;3.80;;;1.63;;
67751;SDS011;54551;51.068;5.826;2022-12-20T09:26:06;2.30;;;1.60;;
67751;SDS011;54551;51.068;5.826;2022-12-20T09:28:35;2.60;;;1.70;;
67751;SDS011;54551;51.068;5.826;2022-12-20T09:31:02;3.17;;;1.80;;
67751;SDS011;54551;51.068;5.826;2022-12-20T09:33:30;5.10;;;1.80;;
67751;SDS011;54551;51.068;5.826;2022-12-20T09:35:59;2.40;;;1.40;;
67751;SDS011;54551;51.068;5.826;2022-12-20T09:38:26;4.00;;;1.50;;
67751;SDS011;54551;51.068;5.826;2022-12-20T09:40:54;2.47;;;1.70;;
67751;SDS011;54551;51.068;5.826;2022-12-20T09:43:26;4.47;;;2.10;;
67751;SDS011;54551;51.068;5.826;2022-12-20T09:45:54;2.10;;;1.60;;
67751;SDS011;54551;51.068;5.826;2022-12-20T09:53:45;3.27;;;1.97;;
67751;SDS011;54551;51.068;5.826;2022-12-20T09:59:22;5.73;;;2.30;;
67751;SDS011;54551;51.068;5.826;2022-12-20T10:01:48;3.87;;;2.03;;
67751;SDS011;54551;51.068;5.826;2022-12-20T10:04:22;5.03;;;2.00;;
67751;SDS011;54551;51.068;5.826;2022-12-20T10:07:10;4.00;;;1.83;;
67751;SDS011;54551;51.068;5.826;2022-12-20T10:09:53;3.63;;;1.97;;
67751;SDS011;54551;51.068;5.826;2022-12-20T10:15:39;2.63;;;1.73;;
67751;SDS011;54551;51.068;5.826;2022-12-20T10:18:26;3.20;;;2.13;;
67751;SDS011;54551;51.068;5.826;2022-12-20T10:23:48;1.97;;;1.73;;
67751;SDS011;54551;51.068;5.826;2022-12-20T10:26:25;5.53;;;2.10;;
67751;SDS011;54551;51.068;5.826;2022-12-20T10:28:51;3.13;;;1.70;;
67751;SDS011;54551;51.068;5.826;2022-12-20T10:31:17;2.80;;;2.07;;
67751;SDS011;54551;51.068;5.826;2022-12-20T10:33:44;2.67;;;1.90;;
67751;SDS011;54551;51.068;5.826;2022-12-20T10:36:43;4.60;;;2.07;;
67751;SDS011;54551;51.068;5.826;2022-12-20T10:39:03;6.47;;;2.17;;
67751;SDS011;54551;51.068;5.826;2022-12-20T10:41:32;4.50;;;1.80;;
67751;SDS011;54551;51.068;5.826;2022-12-20T10:44:13;4.60;;;1.80;;
67751;SDS011;54551;51.068;5.826;2022-12-20T10:46:42;4.23;;;2.30;;
67751;SDS011;54551;51.068;5.826;2022-12-20T10:49:33;4.80;;;2.00;;
67751;SDS011;54551;51.068;5.826;2022-12-20T10:57:12;4.60;;;2.03;;
67751;SDS011;54551;51.068;5.826;2022-12-20T10:59:53;3.83;;;1.97;;
67751;SDS011;54551;51.068;5.826;2022-12-20T11:04:56;3.33;;;1.90;;
67751;SDS011;54551;51.068;5.826;2022-12-20T11:07:59;4.07;;;2.00;;
67751;SDS011;54551;51.068;5.826;2022-12-20T11:10:41;5.33;;;2.40;;
67751;SDS011;54551;51.068;5.826;2022-12-20T11:13:17;3.43;;;2.07;;
67751;SDS011;54551;51.068;5.826;2022-12-20T11:15:49;3.47;;;1.93;;
67751;SDS011;54551;51.068;5.826;2022-12-20T11:18:42;5.53;;;1.83;;
67751;SDS011;54551;51.068;5.826;2022-12-20T11:22:04;4.83;;;1.80;;
67751;SDS011;54551;51.068;5.826;2022-12-20T11:24:07;5.03;;;1.63;;
67751;SDS011;54551;51.068;5.826;2022-12-20T11:32:27;2.80;;;1.80;;
67751;SDS011;54551;51.068;5.826;2022-12-20T11:35:37;4.60;;;2.03;;
67751;SDS011;54551;51.068;5.826;2022-12-20T11:38:07;6.47;;;1.97;;
67751;SDS011;54551;51.068;5.826;2022-12-20T11:40:52;2.67;;;1.90;;
67751;SDS011;54551;51.068;5.826;2022-12-20T11:48:41;2.70;;;1.77;;
67751;SDS011;54551;51.068;5.826;2022-12-20T11:51:21;1.80;;;1.70;;
67751;SDS011;54551;51.068;5.826;2022-12-20T11:56:32;4.57;;;2.20;;
67751;SDS011;54551;51.068;5.826;2022-12-20T11:59:04;2.93;;;2.03;;
67751;SDS011;54551;51.068;5.826;2022-12-20T12:01:37;2.50;;;1.97;;
67751;SDS011;54551;51.068;5.826;2022-12-20T12:04:29;2.83;;;1.80;;
67751;SDS011;54551;51.068;5.826;2022-12-20T12:07:03;3.53;;;2.60;;
67751;SDS011;54551;51.068;5.826;2022-12-20T12:09:40;3.43;;;2.47;;
67751;SDS011;54551;51.068;5.826;2022-12-20T12:14:50;5.67;;;2.30;;
67751;SDS011;54551;51.068;5.826;2022-12-20T12:17:41;4.33;;;2.23;;
67751;SDS011;54551;51.068;5.826;2022-12-20T12:23:11;3.10;;;2.40;;
67751;SDS011;54551;51.068;5.826;2022-12-20T12:25:53;3.10;;;2.50;;
67751;SDS011;54551;51.068;5.826;2022-12-20T12:28:19;3.10;;;2.50;;
67751;SDS011;54551;51.068;5.826;2022-12-20T12:30:57;4.93;;;2.43;;
67751;SDS011;54551;51.068;5.826;2022-12-20T12:33:34;5.67;;;2.70;;
67751;SDS011;54551;51.068;5.826;2022-12-20T12:36:31;3.40;;;2.77;;
67751;SDS011;54551;51.068;5.826;2022-12-20T12:42:21;6.27;;;2.67;;
67751;SDS011;54551;51.068;5.826;2022-12-20T12:47:47;3.77;;;2.63;;
67751;SDS011;54551;51.068;5.826;2022-12-20T12:50:36;5.23;;;2.47;;
67751;SDS011;54551;51.068;5.826;2022-12-20T12:53:11;6.27;;;2.50;;
67751;SDS011;54551;51.068;5.826;2022-12-20T13:11:42;4.60;;;3.10;;
67751;SDS011;54551;51.068;5.826;2022-12-20T13:16:49;5.07;;;2.77;;
67751;SDS011;54551;51.068;5.826;2022-12-20T13:19:28;6.97;;;3.17;;
67751;SDS011;54551;51.068;5.826;2022-12-20T13:22:20;7.60;;;3.47;;
67751;SDS011;54551;51.068;5.826;2022-12-20T13:24:51;4.43;;;2.93;;
67751;SDS011;54551;51.068;5.826;2022-12-20T13:35:43;6.23;;;3.23;;
67751;SDS011;54551;51.068;5.826;2022-12-20T13:41:31;6.57;;;3.30;;
67751;SDS011;54551;51.068;5.826;2022-12-20T13:46:49;6.67;;;3.83;;
67751;SDS011;54551;51.068;5.826;2022-12-20T13:49:27;4.83;;;3.30;;
67751;SDS011;54551;51.068;5.826;2022-12-20T13:52:11;5.67;;;3.60;;
67751;SDS011;54551;51.068;5.826;2022-12-20T13:54:53;6.50;;;3.40;;
67751;SDS011;54551;51.068;5.826;2022-12-20T13:57:27;4.73;;;3.33;;
67751;SDS011;54551;51.068;5.826;2022-12-20T14:00:04;3.40;;;3.10;;
67751;SDS011;54551;51.068;5.826;2022-12-20T14:02:41;6.33;;;3.70;;
67751;SDS011;54551;51.068;5.826;2022-12-20T14:05:23;4.47;;;3.30;;
67751;SDS011;54551;51.068;5.826;2022-12-20T14:07:56;4.80;;;3.07;;
67751;SDS011;54551;51.068;5.826;2022-12-20T14:10:25;7.30;;;3.20;;
67751;SDS011;54551;51.068;5.826;2022-12-20T14:12:53;3.73;;;3.20;;
67751;SDS011;54551;51.068;5.826;2022-12-20T14:17:51;6.30;;;3.63;;
67751;SDS011;54551;51.068;5.826;2022-12-20T14:20:22;9.03;;;3.70;;
67751;SDS011;54551;51.068;5.826;2022-12-20T14:25:30;5.80;;;3.77;;
67751;SDS011;54551;51.068;5.826;2022-12-20T14:28:03;6.70;;;3.27;;
67751;SDS011;54551;51.068;5.826;2022-12-20T14:30:40;7.13;;;4.07;;
67751;SDS011;54551;51.068;5.826;2022-12-20T14:35:52;4.20;;;3.10;;
67751;SDS011;54551;51.068;5.826;2022-12-20T14:38:28;3.93;;;3.40;;
67751;SDS011;54551;51.068;5.826;2022-12-20T14:40:57;7.70;;;3.70;;
67751;SDS011;54551;51.068;5.826;2022-12-20T14:43:25;3.83;;;3.27;;
67751;SDS011;54551;51.068;5.826;2022-12-20T14:48:38;4.77;;;3.50;;
67751;SDS011;54551;51.068;5.826;2022-12-20T14:51:04;6.27;;;3.40;;
67751;SDS011;54551;51.068;5.826;2022-12-20T14:53:30;4.03;;;3.63;;
67751;SDS011;54551;51.068;5.826;2022-12-20T14:55:56;5.40;;;3.50;;
67751;SDS011;54551;51.068;5.826;2022-12-20T14:58:24;6.10;;;3.60;;
67751;SDS011;54551;51.068;5.826;2022-12-20T15:03:55;7.37;;;3.63;;
67751;SDS011;54551;51.068;5.826;2022-12-20T15:06:32;5.90;;;3.60;;
67751;SDS011;54551;51.068;5.826;2022-12-20T15:09:09;4.57;;;3.40;;
67751;SDS011;54551;51.068;5.826;2022-12-20T15:11:35;4.10;;;3.60;;
67751;SDS011;54551;51.068;5.826;2022-12-20T15:14:05;4.90;;;3.70;;
67751;SDS011;54551;51.068;5.826;2022-12-20T15:16:50;7.23;;;3.60;;
67751;SDS011;54551;51.068;5.826;2022-12-20T15:19:17;5.10;;;3.30;;
67751;SDS011;54551;51.068;5.826;2022-12-20T15:21:43;6.83;;;3.60;;
67751;SDS011;54551;51.068;5.826;2022-12-20T15:24:11;5.07;;;3.43;;
67751;SDS011;54551;51.068;5.826;2022-12-20T15:26:39;5.67;;;3.50;;
67751;SDS011;54551;51.068;5.826;2022-12-20T15:29:05;4.87;;;3.10;;
67751;SDS011;54551;51.068;5.826;2022-12-20T15:31:34;6.13;;;3.23;;
67751;SDS011;54551;51.068;5.826;2022-12-20T15:34:10;5.97;;;3.43;;
67751;SDS011;54551;51.068;5.826;2022-12-20T15:36:39;4.60;;;2.97;;
67751;SDS011;54551;51.068;5.826;2022-12-20T15:39:05;6.50;;;3.33;;
67751;SDS011;54551;51.068;5.826;2022-12-20T15:41:31;5.30;;;3.20;;
67751;SDS011;54551;51.068;5.826;2022-12-20T15:43:59;4.97;;;3.10;;
67751;SDS011;54551;51.068;5.826;2022-12-20T15:46:29;3.27;;;2.67;;
67751;SDS011;54551;51.068;5.826;2022-12-20T15:48:55;4.53;;;2.90;;
67751;SDS011;54551;51.068;5.826;2022-12-20T15:53:56;5.47;;;2.90;;
67751;SDS011;54551;51.068;5.826;2022-12-20T15:56:24;4.27;;;3.20;;
67751;SDS011;54551;51.068;5.826;2022-12-20T15:58:51;7.37;;;4.07;;
67751;SDS011;54551;51.068;5.826;2022-12-20T16:01:19;7.00;;;4.60;;
67751;SDS011;54551;51.068;5.826;2022-12-20T16:03:48;6.03;;;4.10;;
67751;SDS011;54551;51.068;5.826;2022-12-20T16:06:14;7.90;;;4.47;;
67751;SDS011;54551;51.068;5.826;2022-12-20T16:08:40;6.43;;;5.20;;
67751;SDS011;54551;51.068;5.826;2022-12-20T16:11:09;3.93;;;3.27;;
67751;SDS011;54551;51.068;5.826;2022-12-20T16:13:52;6.23;;;3.87;;
67751;SDS011;54551;51.068;5.826;2022-12-20T16:16:20;7.07;;;4.67;;
67751;SDS011;54551;51.068;5.826;2022-12-20T16:18:47;7.30;;;3.43;;
67751;SDS011;54551;51.068;5.826;2022-12-20T16:21:15;7.40;;;3.70;;
67751;SDS011;54551;51.068;5.826;2022-12-20T16:23:52;3.40;;;3.10;;
67751;SDS011;54551;51.068;5.826;2022-12-20T16:26:19;4.67;;;3.63;;
67751;SDS011;54551;51.068;5.826;2022-12-20T16:28:48;6.37;;;4.20;;
67751;SDS011;54551;51.068;5.826;2022-12-20T16:31:25;5.03;;;3.70;;
67751;SDS011;54551;51.068;5.826;2022-12-20T16:33:55;4.40;;;4.00;;
67751;SDS011;54551;51.068;5.826;2022-12-20T16:36:22;5.83;;;4.20;;
67751;SDS011;54551;51.068;5.826;2022-12-20T16:38:49;6.90;;;4.40;;
67751;SDS011;54551;51.068;5.826;2022-12-20T16:41:19;7.00;;;4.40;;
67751;SDS011;54551;51.068;5.826;2022-12-20T16:43:48;7.00;;;4.30;;
67751;SDS011;54551;51.068;5.826;2022-12-20T16:46:18;6.83;;;4.27;;
67751;SDS011;54551;51.068;5.826;2022-12-20T16:48:45;5.20;;;4.17;;
67751;SDS011;54551;51.068;5.826;2022-12-20T16:51:22;5.30;;;3.63;;
67751;SDS011;54551;51.068;5.826;2022-12-20T16:53:52;7.37;;;4.70;;
67751;SDS011;54551;51.068;5.826;2022-12-20T16:56:19;4.57;;;3.80;;
67751;SDS011;54551;51.068;5.826;2022-12-20T16:58:45;6.93;;;4.60;;
67751;SDS011;54551;51.068;5.826;2022-12-20T17:01:13;5.70;;;3.97;;
67751;SDS011;54551;51.068;5.826;2022-12-20T17:03:42;9.23;;;3.80;;
67751;SDS011;54551;51.068;5.826;2022-12-20T17:06:10;4.07;;;3.70;;
67751;SDS011;54551;51.068;5.826;2022-12-20T17:08:37;4.53;;;3.37;;
67751;SDS011;54551;51.068;5.826;2022-12-20T17:11:08;5.63;;;4.30;;